Time;durP1;ratioP1;P1;durP2;ratioP2;P2;SDS_P1;SDS_P2;PMS_P1;PMS_P2;Temp;Humidity;BMP_temperature;BMP_pressure;BME280_temperature;BME280_humidity;BME280_pressure;Samples;Min_cycle;Max_cycle;Signal;HPM_P1;HPM_P2
2021/12/07 00:01:27;;;;;;;2.55;2.05;;;3.30;99.90;;;3.30;95.11;99877.16;5000712;28;20283;-63
2021/12/07 00:03:56;;;;;;;2.22;2.03;;;3.30;99.90;;;3.31;96.14;99871.09;4997270;28;20256;-61
2021/12/07 00:06:23;;;;;;;2.58;2.38;;;3.20;99.90;;;3.27;96.26;99868.75;5009453;28;20203;-63
2021/12/07 00:08:54;;;;;;;1.35;1.35;;;3.20;99.90;;;3.22;96.56;99869.00;5010303;28;20250;-63
2021/12/07 00:11:27;;;;;;;2.58;2.05;;;3.20;99.90;;;3.19;97.08;99865.75;5009873;28;20286;-63
2021/12/07 00:13:57;;;;;;;2.58;2.38;;;3.20;99.90;;;3.25;96.35;99852.53;5011440;28;20306;-63
2021/12/07 00:16:27;;;;;;;1.17;1.15;;;3.20;99.90;;;3.25;96.68;99863.69;5011323;28;20678;-63
2021/12/07 00:18:57;;;;;;;2.85;1.73;;;3.20;99.90;;;3.30;97.19;99858.28;5005515;28;20219;-61
2021/12/07 00:21:25;;;;;;;3.90;2.60;;;3.20;99.90;;;3.21;96.96;99853.63;5021182;28;20237;-63
2021/12/07 00:23:52;;;;;;;2.33;2.13;;;3.20;99.90;;;3.13;97.63;99848.91;5010137;28;20293;-63
2021/12/07 00:26:40;;;;;;;2.72;2.55;;;3.20;99.90;;;3.17;97.58;99857.28;5010572;28;20202;-62
2021/12/07 00:29:09;;;;;;;3.70;3.38;;;3.20;99.90;;;3.17;98.12;99855.53;4991352;28;20322;-62
2021/12/07 00:31:48;;;;;;;2.00;1.90;;;3.20;99.90;;;3.19;98.14;99852.88;4992180;28;20294;-65
2021/12/07 00:36:49;;;;;;;2.97;2.75;;;3.20;99.90;;;3.14;98.23;99851.38;5005283;28;20235;-63
2021/12/07 00:39:21;;;;;;;2.20;2.10;;;3.20;99.90;;;3.15;99.06;99847.88;5005821;28;20301;-63
2021/12/07 00:41:50;;;;;;;3.58;2.30;;;3.20;99.90;;;3.10;98.79;99849.88;5025214;28;20487;-63
2021/12/07 00:44:19;;;;;;;1.88;1.83;;;3.20;99.90;;;3.14;98.74;99842.81;5010601;28;20206;-63
2021/12/07 00:46:47;;;;;;;3.00;2.70;;;3.20;99.90;;;3.07;99.08;99839.72;5008708;28;20789;-63
2021/12/07 00:49:15;;;;;;;1.50;1.33;;;3.10;99.90;;;3.11;98.77;99833.50;5006664;28;20245;-63
2021/12/07 00:51:43;;;;;;;1.73;1.60;;;3.10;99.90;;;3.06;99.95;99835.50;5008139;28;20226;-62
2021/12/07 00:54:11;;;;;;;1.98;1.58;;;3.10;99.90;;;3.05;99.59;99828.66;5007887;28;20286;-61
2021/12/07 00:56:38;;;;;;;1.70;1.60;;;3.10;99.90;;;3.12;99.11;99842.91;5009970;28;20799;-63
2021/12/07 00:59:06;;;;;;;2.55;2.35;;;3.10;99.90;;;3.03;100.00;99842.56;5025095;28;20222;-60
2021/12/07 01:01:33;;;;;;;1.95;1.77;;;3.10;99.90;;;3.15;100.00;99844.50;5009651;28;20199;-64
2021/12/07 01:04:01;;;;;;;2.33;1.65;;;3.10;99.90;;;3.10;99.80;99842.16;5010221;28;20801;-64
2021/12/07 01:06:32;;;;;;;2.05;1.92;;;3.10;99.90;;;3.20;100.00;99855.34;5005123;28;20286;-61
2021/12/07 01:09:28;;;;;;;2.70;2.50;;;3.10;99.90;;;3.15;99.21;99852.22;5010095;28;20329;-64
2021/12/07 01:25:36;;;;;;;2.95;1.83;;;3.10;99.90;;;3.06;99.78;99848.38;5009644;28;20297;-63
2021/12/07 01:28:14;;;;;;;2.75;2.55;;;3.10;99.90;;;3.12;100.00;99847.22;5011003;28;20198;-62
2021/12/07 01:30:51;;;;;;;3.05;1.55;;;3.10;99.90;;;3.17;99.46;99854.72;5008717;28;20232;-61
2021/12/07 01:36:00;;;;;;;1.52;1.52;;;3.20;99.90;;;3.24;99.58;99861.19;5029052;28;20698;-64
2021/12/07 01:44:40;;;;;;;2.25;1.77;;;3.20;99.90;;;3.23;99.51;99864.69;4957351;28;20736;-64
2021/12/07 01:47:27;;;;;;;2.00;1.90;;;3.30;99.90;;;3.34;99.10;99870.09;4967941;28;20235;-64
2021/12/07 01:52:54;;;;;;;1.60;1.50;;;3.20;99.90;;;3.32;98.89;99883.06;4979258;28;20354;-64
2021/12/07 02:00:39;;;;;;;2.10;1.92;;;3.30;99.90;;;3.34;99.71;99898.47;4995802;28;20309;-63
2021/12/07 02:03:06;;;;;;;1.05;1.05;;;3.30;99.90;;;3.33;99.72;99889.03;5001415;28;20211;-63
2021/12/07 02:05:33;;;;;;;0.88;0.88;;;3.30;99.90;;;3.36;99.28;99896.63;5013291;28;20230;-64
2021/12/07 02:08:02;;;;;;;1.25;1.13;;;3.30;99.90;;;3.38;98.58;99900.78;5013989;28;20762;-63
2021/12/07 02:10:31;;;;;;;0.43;0.40;;;3.40;99.90;;;3.38;98.62;99905.09;5014972;28;20234;-62
2021/12/07 02:13:04;;;;;;;2.38;1.30;;;3.30;99.90;;;3.33;99.74;99899.34;5014371;28;20281;-64
2021/12/07 02:15:33;;;;;;;3.42;1.00;;;3.30;99.90;;;3.36;99.61;99905.19;5013372;28;20206;-62
2021/12/07 02:18:00;;;;;;;2.22;1.67;;;3.30;99.90;;;3.39;99.45;99901.59;5014324;28;20203;-64
2021/12/07 02:20:30;;;;;;;1.52;1.42;;;3.30;99.90;;;3.40;99.28;99906.69;5012658;28;20723;-62
2021/12/07 02:22:57;;;;;;;3.00;2.17;;;3.30;99.90;;;3.41;99.27;99907.53;5013817;28;20294;-62
2021/12/07 02:25:24;;;;;;;0.75;0.75;;;3.40;99.90;;;3.42;99.40;99904.88;5012390;28;20785;-62
2021/12/07 02:27:53;;;;;;;2.35;2.15;;;3.40;99.90;;;3.50;99.55;99910.44;5013167;28;20292;-62
2021/12/07 02:30:23;;;;;;;1.00;1.00;;;3.40;99.90;;;3.52;99.02;99905.19;5012336;28;20755;-62
2021/12/07 02:32:54;;;;;;;0.70;0.70;;;3.40;99.90;;;3.52;99.40;99910.34;5013089;28;20815;-62
2021/12/07 02:35:25;;;;;;;1.52;0.82;;;3.50;99.90;;;3.60;98.83;99897.88;5011065;28;20279;-62
2021/12/07 02:37:55;;;;;;;0.60;0.60;;;3.50;99.90;;;3.60;98.35;99892.72;5013713;28;20199;-62
2021/12/07 02:40:22;;;;;;;1.20;0.95;;;3.60;99.90;;;3.62;98.15;99891.69;5013160;28;20225;-62
2021/12/07 02:42:50;;;;;;;1.52;1.42;;;3.50;99.90;;;3.68;98.54;99898.28;5011034;28;20655;-63
2021/12/07 02:45:20;;;;;;;1.52;1.42;;;3.50;99.90;;;3.64;98.96;99895.03;5012383;28;20211;-62
2021/12/07 02:47:48;;;;;;;1.02;0.77;;;3.50;99.90;;;3.63;99.16;99892.53;5013887;28;20215;-62
2021/12/07 02:50:17;;;;;;;1.25;1.25;;;3.50;99.90;;;3.68;98.74;99893.13;5013062;28;20601;-62
2021/12/07 02:52:44;;;;;;;1.35;1.25;;;3.60;99.90;;;3.63;98.36;99901.13;5012901;28;20290;-63
2021/12/07 02:55:12;;;;;;;1.42;1.33;;;3.60;99.90;;;3.71;97.81;99908.41;5011877;28;20306;-62
2021/12/07 02:57:42;;;;;;;0.65;0.65;;;3.60;99.90;;;3.74;97.50;99916.00;5013654;28;20226;-62
2021/12/07 03:00:18;;;;;;;1.80;1.33;;;3.70;99.90;;;3.77;97.17;99921.81;5013063;28;20280;-63
2021/12/07 03:03:09;;;;;;;1.60;0.88;;;3.70;99.90;;;3.82;97.00;99924.13;5013155;28;20562;-62
2021/12/07 03:27:06;;;;;;;0.50;0.50;;;3.50;99.90;;;3.63;95.61;99965.59;5012598;28;20753;-62
2021/12/07 03:29:33;;;;;;;0.75;0.75;;;3.50;99.90;;;3.66;96.23;99959.44;5010580;28;20223;-62
2021/12/07 03:32:00;;;;;;;0.60;0.60;;;3.50;99.90;;;3.65;95.80;99961.19;5012630;28;20690;-63
2021/12/07 03:34:27;;;;;;;0.60;0.60;;;3.50;99.90;;;3.66;96.21;99969.78;5012869;28;20207;-62
2021/12/07 03:36:54;;;;;;;0.50;0.50;;;3.50;99.90;;;3.72;96.25;99972.00;5011212;28;20195;-62
2021/12/07 03:39:21;;;;;;;0.52;0.52;;;3.60;99.90;;;3.74;96.06;99972.75;5012774;28;20227;-63
2021/12/07 03:41:48;;;;;;;0.70;0.70;;;3.60;99.90;;;3.80;95.68;99972.41;5013044;28;20213;-62
2021/12/07 03:44:15;;;;;;;0.60;0.60;;;3.70;99.90;;;3.76;95.25;99978.66;5011943;28;20217;-63
2021/12/07 03:46:42;;;;;;;0.30;0.30;;;3.60;99.90;;;3.79;95.46;99978.50;5011411;28;20199;-62
2021/12/07 03:49:10;;;;;;;0.50;0.50;;;3.70;99.90;;;3.79;95.64;99981.91;5004829;28;20227;-62
2021/12/07 03:51:37;;;;;;;0.40;0.40;;;3.70;99.90;;;3.81;95.45;99987.00;4991840;28;20318;-62
2021/12/07 03:54:06;;;;;;;0.55;0.55;;;3.70;99.90;;;3.82;95.63;99978.31;4994083;28;20197;-63
2021/12/07 03:56:33;;;;;;;0.65;0.60;;;3.60;99.90;;;3.81;94.36;99984.41;5010968;28;20205;-62
2021/12/07 03:59:00;;;;;;;0.70;0.70;;;3.70;99.90;;;3.80;94.48;99988.75;5012539;28;20310;-62
2021/12/07 04:01:28;;;;;;;1.00;0.82;;;3.60;99.90;;;3.76;95.35;99986.41;5012282;28;20290;-63
2021/12/07 04:03:55;;;;;;;0.70;0.70;;;3.70;99.90;;;3.77;95.15;99990.63;5010141;28;20646;-63
2021/12/07 04:06:22;;;;;;;0.73;0.73;;;3.60;99.90;;;3.78;95.56;100000.06;5010834;28;20239;-62
2021/12/07 04:08:49;;;;;;;0.60;0.60;;;3.60;99.90;;;3.79;95.88;100006.91;5012707;28;20230;-62
2021/12/07 04:11:17;;;;;;;0.60;0.60;;;3.70;99.90;;;3.81;95.84;100010.22;4995225;28;20306;-62
2021/12/07 04:13:45;;;;;;;0.55;0.50;;;3.70;99.90;;;3.82;96.00;100009.28;5010924;28;20205;-63
2021/12/07 04:16:15;;;;;;;0.57;0.57;;;3.70;99.90;;;3.85;95.52;100016.88;5000410;28;20245;-62
2021/12/07 04:18:42;;;;;;;0.60;0.40;;;3.70;99.90;;;3.87;95.14;100017.63;5000988;28;20256;-63
2021/12/07 04:21:10;;;;;;;0.40;0.40;;;3.70;99.90;;;3.93;94.70;100020.72;5013956;28;20285;-63
2021/12/07 04:23:38;;;;;;;0.20;0.20;;;3.80;99.90;;;3.94;94.82;100029.25;5011427;28;20207;-62
2021/12/07 04:26:09;;;;;;;0.50;0.50;;;3.80;99.90;;;4.02;94.27;100028.88;5011366;28;20217;-63
2021/12/07 04:28:37;;;;;;;0.22;0.22;;;3.90;99.90;;;4.05;94.05;100044.16;5004022;28;20281;-63
2021/12/07 04:31:06;;;;;;;0.55;0.55;;;3.90;99.90;;;4.08;94.08;100049.19;5009394;28;20258;-63
2021/12/07 04:33:34;;;;;;;0.40;0.40;;;3.90;99.90;;;4.12;93.14;100051.50;5010891;28;20257;-63
2021/12/07 04:36:06;;;;;;;0.52;0.52;;;4.00;99.90;;;4.23;92.15;100053.50;5009377;28;20207;-63
2021/12/07 04:38:33;;;;;;;0.60;0.60;;;4.10;99.90;;;4.18;92.50;100048.59;5010759;28;20217;-63
2021/12/07 04:41:00;;;;;;;0.77;0.60;;;4.10;99.90;;;4.18;92.70;100051.16;5009503;28;20295;-62
2021/12/07 04:43:27;;;;;;;0.93;0.93;;;4.00;99.90;;;4.17;92.41;100044.34;5008884;28;20618;-62
2021/12/07 04:49:29;;;;;;;0.50;0.50;;;4.00;99.90;;;4.21;92.38;100050.19;5010633;28;20206;-63
2021/12/07 04:59:37;;;;;;;0.50;0.50;;;4.00;99.90;;;4.18;92.09;100064.09;5009225;28;20710;-63
2021/12/07 05:02:04;;;;;;;0.55;0.55;;;4.00;99.90;;;4.17;92.13;100066.75;5009696;28;20734;-62
2021/12/07 05:04:34;;;;;;;1.35;0.70;;;4.00;99.90;;;4.18;92.13;100069.25;5009811;28;20211;-62
2021/12/07 05:07:19;;;;;;;0.80;0.68;;;4.00;99.90;;;4.18;92.40;100077.00;5010375;28;20213;-62
2021/12/07 05:14:44;;;;;;;0.65;0.55;;;4.00;99.90;;;4.14;92.55;100083.25;5008085;28;20257;-63
2021/12/07 05:17:42;;;;;;;1.38;0.55;;;4.00;99.90;;;4.11;92.87;100085.97;5009931;28;20210;-63
2021/12/07 05:39:09;;;;;;;1.15;0.80;;;4.00;99.90;;;4.09;92.57;100121.38;4990692;28;20314;-63
2021/12/07 05:41:36;;;;;;;0.70;0.70;;;4.00;99.90;;;4.09;92.84;100128.31;5005832;28;20290;-63
2021/12/07 05:44:04;;;;;;;1.70;0.95;;;4.00;99.90;;;4.13;92.46;100135.78;5025317;28;20296;-63
2021/12/07 05:46:31;;;;;;;0.68;0.68;;;4.00;99.90;;;4.17;92.26;100132.16;5006109;28;20286;-63
2021/12/07 05:48:58;;;;;;;0.55;0.55;;;4.00;99.90;;;4.25;91.13;100129.97;5001304;28;20522;-63
2021/12/07 05:51:24;;;;;;;0.45;0.45;;;4.20;99.90;;;4.30;90.76;100132.31;5009274;28;20223;-63
2021/12/07 05:53:51;;;;;;;1.00;0.90;;;4.20;99.90;;;4.27;90.31;100143.63;5010890;28;20278;-63
2021/12/07 05:56:18;;;;;;;1.33;0.77;;;4.20;99.90;;;4.28;90.06;100142.72;5008098;28;20643;-63
2021/12/07 05:58:45;;;;;;;0.70;0.70;;;4.20;99.90;;;4.23;90.24;100141.31;4992292;28;20237;-63
2021/12/07 06:01:12;;;;;;;0.82;0.82;;;4.10;99.90;;;4.21;90.01;100138.81;5006970;28;20211;-63
2021/12/07 06:03:39;;;;;;;0.40;0.40;;;4.10;99.90;;;4.21;90.23;100158.63;5009700;28;20206;-63
2021/12/07 06:06:12;;;;;;;5.35;0.80;;;4.10;99.90;;;4.20;90.06;100154.34;5008901;28;20198;-63
2021/12/07 06:08:40;;;;;;;1.02;0.77;;;4.10;99.90;;;4.21;90.77;100163.78;5009061;28;20203;-62
2021/12/07 06:11:07;;;;;;;0.60;0.60;;;4.10;99.90;;;4.19;90.53;100155.28;5010089;28;20285;-63
2021/12/07 06:13:34;;;;;;;0.70;0.60;;;4.10;99.90;;;4.23;90.95;100161.97;5020877;28;20205;-63
2021/12/07 06:16:06;;;;;;;0.70;0.70;;;4.10;99.90;;;4.24;90.02;100171.38;5010192;28;20199;-63
2021/12/07 06:18:35;;;;;;;0.70;0.70;;;4.10;99.90;;;4.27;90.24;100174.63;5007122;28;20199;-64
2021/12/07 06:21:03;;;;;;;0.50;0.50;;;4.20;99.90;;;4.30;89.71;100171.88;5010062;28;20482;-64
2021/12/07 06:23:30;;;;;;;0.85;0.85;;;4.20;99.90;;;4.35;89.58;100182.78;5008863;28;20210;-63
2021/12/07 06:25:59;;;;;;;1.00;0.95;;;4.20;99.90;;;4.38;89.23;100179.22;5010685;28;20207;-64
2021/12/07 06:28:26;;;;;;;0.80;0.80;;;4.30;99.90;;;4.40;89.22;100180.81;5008970;28;20295;-64
2021/12/07 06:30:53;;;;;;;0.80;0.50;;;4.30;99.90;;;4.42;89.24;100191.03;5015127;28;20218;-64
2021/12/07 06:33:24;;;;;;;0.60;0.60;;;4.30;99.90;;;4.44;88.84;100187.47;5008753;28;20330;-64
2021/12/07 06:35:57;;;;;;;1.17;0.60;;;4.40;99.90;;;4.46;88.86;100203.72;5016001;28;20289;-64
2021/12/07 06:38:26;;;;;;;0.60;0.60;;;4.40;99.90;;;4.53;87.99;100196.47;5009488;28;20203;-64
2021/12/07 06:40:55;;;;;;;0.77;0.77;;;4.50;99.90;;;4.49;88.31;100200.16;5010692;28;20687;-64
2021/12/07 06:43:22;;;;;;;0.95;0.88;;;4.40;99.90;;;4.55;88.30;100204.97;5031897;28;20213;-63
2021/12/07 06:45:49;;;;;;;1.83;0.75;;;4.50;99.90;;;4.56;87.91;100212.63;5014404;28;20203;-64
2021/12/07 06:48:17;;;;;;;0.70;0.70;;;4.50;99.90;;;4.62;87.60;100227.00;5007547;28;20215;-64
2021/12/07 06:50:44;;;;;;;0.73;0.73;;;4.50;99.90;;;4.58;87.51;100239.22;5009278;28;20326;-64
2021/12/07 06:53:11;;;;;;;0.70;0.70;;;4.50;99.90;;;4.55;88.24;100242.00;5015711;28;20533;-63
2021/12/07 06:55:38;;;;;;;0.57;0.57;;;4.40;99.90;;;4.48;88.54;100245.81;5003509;28;20289;-63
2021/12/07 06:58:05;;;;;;;1.67;0.80;;;4.30;99.90;;;4.45;88.81;100253.69;5008056;28;20210;-64
2021/12/07 07:00:33;;;;;;;1.17;0.45;;;4.30;99.90;;;4.47;89.02;100251.88;5012217;28;20223;-64
2021/12/07 07:03:01;;;;;;;3.15;0.82;;;4.40;99.90;;;4.47;89.31;100249.28;5012052;28;20213;-63
2021/12/07 07:05:28;;;;;;;1.05;0.90;;;4.40;99.90;;;4.54;89.00;100255.81;5009673;28;21389;-64
2021/12/07 07:07:55;;;;;;;1.95;0.82;;;4.40;99.90;;;4.54;88.57;100271.31;5021261;28;20289;-64
2021/12/07 07:10:22;;;;;;;0.75;0.75;;;4.40;99.90;;;4.55;88.76;100270.41;5020053;28;20318;-64
2021/12/07 07:12:49;;;;;;;0.90;0.90;;;4.40;99.90;;;4.55;88.52;100273.00;5011832;28;20223;-61
2021/12/07 07:15:17;;;;;;;0.90;0.90;;;4.40;99.90;;;4.58;88.71;100277.97;5011231;28;20230;-64
2021/12/07 07:17:44;;;;;;;1.05;1.05;;;4.50;99.90;;;4.58;89.12;100285.72;5012132;28;20286;-64
2021/12/07 07:20:15;;;;;;;0.65;0.65;;;4.50;99.90;;;4.58;89.03;100288.31;5008474;28;20223;-63
2021/12/07 07:22:42;;;;;;;1.13;1.10;;;4.50;99.90;;;4.63;88.71;100280.31;5018887;28;20242;-63
2021/12/07 07:25:11;;;;;;;3.13;1.40;;;4.50;99.90;;;4.69;87.79;100275.66;5011956;28;20206;-64
2021/12/07 07:27:38;;;;;;;0.93;0.93;;;4.60;99.90;;;4.71;87.82;100284.16;5011355;28;20297;-63
2021/12/07 07:30:08;;;;;;;2.92;1.33;;;4.60;99.90;;;4.79;87.23;100288.09;5020833;28;20253;-63
2021/12/07 07:32:36;;;;;;;0.90;0.90;;;4.70;99.90;;;4.83;86.80;100281.84;4993311;28;20223;-64
2021/12/07 07:35:05;;;;;;;1.05;1.05;;;4.80;99.90;;;4.90;86.20;100285.78;5007597;28;20294;-64
2021/12/07 07:37:32;;;;;;;4.97;1.08;;;4.90;99.90;;;4.99;86.01;100285.25;5024415;28;20202;-64
2021/12/07 07:39:59;;;;;;;1.10;1.10;;;4.90;99.90;;;5.09;84.61;100278.69;5011817;28;20219;-63
2021/12/07 07:42:32;;;;;;;1.10;1.10;;;5.10;99.90;;;5.15;84.11;100288.69;5012614;28;20206;-63
2021/12/07 07:44:59;;;;;;;1.43;0.90;;;5.10;99.90;;;5.28;83.52;100284.50;5012077;28;20298;-63
2021/12/07 07:47:26;;;;;;;0.60;0.60;;;5.20;99.90;;;5.35;82.83;100291.00;5010128;28;20733;-63
2021/12/07 07:49:53;;;;;;;0.80;0.80;;;5.30;99.90;;;5.48;82.14;100308.34;5011016;28;20756;-62
2021/12/07 07:52:20;;;;;;;2.20;0.60;;;5.50;99.90;;;5.53;81.07;100310.69;5011570;28;20661;-62
2021/12/07 07:54:47;;;;;;;2.05;1.00;;;5.50;99.90;;;5.65;80.48;100312.56;5011200;28;20653;-62
2021/12/07 07:57:14;;;;;;;4.83;1.10;;;5.60;99.90;;;5.75;79.67;100311.13;5011606;28;20205;-63
2021/12/07 07:59:41;;;;;;;1.00;0.90;;;5.80;99.90;;;5.84;79.41;100309.78;5011024;28;20657;-63
2021/12/07 08:02:08;;;;;;;1.00;0.90;;;5.90;99.90;;;5.90;80.34;100304.28;5011610;28;21165;-62
2021/12/07 08:04:36;;;;;;;0.83;0.83;;;5.90;99.90;;;5.94;79.78;100301.41;5008579;28;20659;-63
2021/12/07 08:07:03;;;;;;;3.93;1.07;;;6.00;99.90;;;6.04;78.55;100315.50;5020340;28;20617;-63
2021/12/07 08:09:30;;;;;;;1.70;0.80;;;6.00;99.90;;;6.37;77.82;100314.44;5008963;28;20735;-62
2021/12/07 08:11:57;;;;;;;0.80;0.80;;;6.40;99.90;;;7.19;75.98;100330.94;5006198;28;21033;-63
2021/12/07 08:14:24;;;;;;;1.10;0.80;;;7.40;99.90;;;8.65;69.79;100326.41;4992928;28;20729;-62
2021/12/07 08:16:52;;;;;;;0.57;0.57;;;8.90;99.90;;;10.08;65.51;100315.16;4999502;28;21027;-62
2021/12/07 08:19:18;;;;;;;2.07;1.00;;;10.60;99.90;;;11.49;60.59;100333.66;5010397;28;20637;-62
2021/12/07 08:21:45;;;;;;;1.40;1.00;;;12.00;99.90;;;12.97;54.91;100326.38;5011492;28;21069;-63
2021/12/07 08:24:12;;;;;;;7.77;1.30;;;13.60;98.10;;;13.98;50.64;100339.16;5010632;28;20736;-63
2021/12/07 08:26:39;;;;;;;7.70;1.20;;;14.80;92.40;;;15.15;48.44;100333.44;5011349;28;21084;-63
2021/12/07 08:29:06;;;;;;;2.57;1.30;;;15.90;89.80;;;16.28;44.85;100338.84;5007982;28;20764;-62
2021/12/07 08:31:33;;;;;;;3.10;1.10;;;17.40;80.90;;;16.71;44.44;100335.38;5025327;28;20659;-63
2021/12/07 08:34:01;;;;;;;1.73;1.20;;;17.80;77.40;;;16.41;43.05;100325.28;5010804;28;20639;-63
2021/12/07 08:36:29;;;;;;;1.67;1.10;;;17.60;73.70;;;16.70;43.40;100331.06;5009135;28;20629;-63
2021/12/07 08:38:56;;;;;;;1.90;1.03;;;17.70;73.60;;;16.89;42.04;100330.84;4991012;28;20670;-63
2021/12/07 08:41:23;;;;;;;2.43;1.20;;;18.40;68.90;;;18.11;39.89;100340.72;4996362;28;21470;-63
2021/12/07 08:43:51;;;;;;;1.40;1.30;;;19.30;66.60;;;18.63;38.99;100346.47;5009972;28;20624;-63
2021/12/07 08:46:18;;;;;;;4.10;1.77;;;19.90;63.90;;;18.99;38.11;100358.25;5010069;28;20613;-63
2021/12/07 08:48:45;;;;;;;2.43;1.77;;;20.30;62.00;;;19.50;37.34;100353.41;5010541;28;20613;-63
2021/12/07 08:51:14;;;;;;;1.63;1.50;;;21.10;60.30;;;20.12;36.26;100345.19;5009253;28;20740;-63
2021/12/07 08:53:52;;;;;;;4.00;1.17;;;21.90;57.60;;;20.32;35.70;100347.34;5008171;28;20650;-63
2021/12/07 09:01:52;;;;;;;2.40;1.50;;;17.70;61.40;;;14.77;45.17;100337.09;5010142;28;20633;-63
2021/12/07 09:04:20;;;;;;;2.70;1.30;;;15.20;67.80;;;13.43;47.91;100350.28;5008872;28;20695;-63
2021/12/07 09:06:49;;;;;;;2.63;1.23;;;13.70;73.90;;;12.44;50.97;100347.50;5006377;28;21054;-63
2021/12/07 09:09:16;;;;;;;4.10;1.53;;;12.60;81.00;;;11.72;52.53;100348.34;5010454;28;20751;-63
2021/12/07 09:11:44;;;;;;;3.73;1.33;;;11.90;87.50;;;11.04;55.57;100342.53;5010318;28;20679;-65
2021/12/07 09:14:14;;;;;;;1.67;1.27;;;11.10;92.10;;;10.66;57.02;100348.97;5010745;28;20728;-64
2021/12/07 09:16:43;;;;;;;1.60;1.50;;;10.80;94.70;;;10.39;58.61;100361.47;5009690;28;20688;-65
2021/12/07 09:19:11;;;;;;;1.63;1.53;;;10.60;96.90;;;10.06;59.17;100358.75;5009706;28;20638;-65
2021/12/07 09:21:39;;;;;;;3.90;1.50;;;10.30;99.10;;;9.75;60.70;100356.72;5009343;28;21006;-65
2021/12/07 09:24:06;;;;;;;1.90;1.50;;;9.90;99.90;;;9.46;61.70;100368.41;5010935;28;20621;-64
2021/12/07 09:26:33;;;;;;;5.53;1.50;;;9.70;99.90;;;9.41;61.88;100368.75;5006678;28;20641;-65
2021/12/07 09:29:01;;;;;;;1.10;1.00;;;9.50;99.90;;;9.26;62.82;100372.44;5002369;28;21049;-62
2021/12/07 09:31:28;;;;;;;2.80;1.10;;;9.40;99.90;;;9.16;62.59;100376.59;5006461;28;20628;-62
2021/12/07 09:33:56;;;;;;;2.87;1.40;;;9.40;99.90;;;9.14;62.84;100381.09;5010014;28;20637;-62
2021/12/07 09:36:25;;;;;;;0.60;0.60;;;9.30;99.90;;;9.01;63.73;100380.28;5000730;28;20626;-62
2021/12/07 09:38:55;;;;;;;2.80;1.37;;;9.20;99.90;;;8.94;64.15;100382.50;4990486;28;20642;-62
2021/12/07 09:41:22;;;;;;;1.80;1.00;;;9.00;99.90;;;8.83;63.74;100381.56;5004053;28;20633;-62
2021/12/07 09:43:52;;;;;;;0.93;0.93;;;8.90;99.90;;;8.76;64.85;100393.31;5010099;28;21267;-62
2021/12/07 09:46:19;;;;;;;0.87;0.87;;;8.80;99.90;;;8.75;64.39;100387.28;5010126;28;20627;-62
2021/12/07 09:48:47;;;;;;;0.60;0.60;;;8.80;99.90;;;8.59;64.32;100389.25;5008509;28;20703;-64
2021/12/07 09:51:19;;;;;;;3.10;0.90;;;8.70;99.90;;;8.49;65.16;100391.66;5009938;28;21311;-64
2021/12/07 09:53:49;;;;;;;0.80;0.80;;;8.50;99.90;;;8.37;65.16;100386.41;5009626;28;20700;-65
2021/12/07 09:56:18;;;;;;;1.43;0.90;;;8.30;99.90;;;8.13;65.98;100386.25;5007898;28;21032;-65
2021/12/07 09:58:48;;;;;;;2.10;1.20;;;8.20;99.90;;;8.13;66.30;100393.22;5010196;28;20710;-65
2021/12/07 10:01:16;;;;;;;0.70;0.70;;;8.00;99.90;;;8.17;66.74;100389.47;5009058;28;20613;-65
2021/12/07 10:03:44;;;;;;;1.33;0.63;;;8.10;99.90;;;8.21;65.56;100383.97;5008798;28;20649;-64
2021/12/07 10:06:12;;;;;;;1.53;1.00;;;8.20;99.90;;;8.27;65.42;100375.81;5010693;28;20644;-65
2021/12/07 10:08:39;;;;;;;1.70;1.03;;;8.30;99.90;;;8.29;65.83;100386.94;5009929;28;20628;-65
2021/12/07 10:11:10;;;;;;;1.43;0.90;;;8.30;99.90;;;8.31;65.59;100376.44;4990721;28;20645;-65
2021/12/07 10:13:41;;;;;;;2.10;0.70;;;8.30;99.90;;;8.37;65.13;100374.25;5009224;28;20701;-62
2021/12/07 10:16:12;;;;;;;1.63;0.87;;;8.40;99.90;;;8.43;65.33;100367.84;5011000;28;20728;-62
2021/12/07 10:18:42;;;;;;;2.20;1.00;;;8.50;99.90;;;8.58;64.81;100372.00;5012686;28;20617;-62
2021/12/07 10:21:23;;;;;;;0.60;0.60;;;8.60;99.90;;;8.67;64.24;100363.56;5012193;28;20683;-62
2021/12/07 10:24:02;;;;;;;0.40;0.40;;;8.80;99.90;;;8.76;64.00;100362.94;5013730;28;20621;-62
2021/12/07 10:26:37;;;;;;;0.60;0.60;;;8.90;99.90;;;8.80;63.05;100356.56;5010557;28;21204;-63
2021/12/07 10:29:17;;;;;;;0.90;0.70;;;8.90;99.90;;;8.88;62.07;100353.47;5009014;28;20647;-62
2021/12/07 10:32:01;;;;;;;1.23;0.60;;;8.90;99.90;;;8.74;61.48;100351.78;5012469;28;21235;-62
2021/12/07 10:34:36;;;;;;;1.53;1.23;;;8.80;99.90;;;8.56;61.95;100333.06;5013311;28;20661;-62
2021/12/07 10:37:08;;;;;;;1.10;1.00;;;8.50;99.90;;;8.44;63.19;100346.91;5013204;28;20671;-62
2021/12/07 10:39:55;;;;;;;0.80;0.80;;;8.30;99.90;;;8.19;62.89;100335.63;5018370;28;20637;-62
2021/12/07 10:42:30;;;;;;;0.83;0.83;;;8.10;99.90;;;8.15;61.91;100327.22;5012210;28;20637;-63
2021/12/07 10:45:09;;;;;;;0.47;0.47;;;8.00;99.90;;;8.08;62.97;100332.91;5013493;28;20679;-63
2021/12/07 10:47:37;;;;;;;1.00;0.60;;;7.90;99.90;;;7.99;62.54;100333.50;5012170;28;20637;-65
2021/12/07 10:50:09;;;;;;;0.70;0.70;;;7.80;99.90;;;7.88;62.95;100336.00;5012079;28;20652;-65
2021/12/07 10:52:42;;;;;;;9.50;0.93;;;7.70;99.90;;;7.86;62.81;100330.09;5013056;28;21059;-64
2021/12/07 10:55:15;;;;;;;0.80;0.60;;;7.70;99.90;;;7.87;62.53;100329.13;5012536;28;20632;-65
2021/12/07 10:58:04;;;;;;;1.80;0.77;;;7.70;99.90;;;7.89;63.31;100332.47;5011113;28;21190;-65
2021/12/07 11:00:44;;;;;;;2.00;0.93;;;7.70;99.90;;;8.01;62.89;100321.28;5013034;28;20633;-64
2021/12/07 11:03:25;;;;;;;0.90;0.60;;;7.90;99.90;;;8.13;62.26;100333.44;5012365;28;20629;-65
2021/12/07 11:05:54;;;;;;;0.87;0.60;;;8.10;99.90;;;8.24;63.00;100329.19;4993615;28;20637;-64
2021/12/07 11:08:28;;;;;;;2.40;0.53;;;8.20;99.90;;;8.34;61.75;100316.44;4999101;28;21218;-64
2021/12/07 11:10:56;;;;;;;0.97;0.70;;;8.30;99.90;;;8.34;61.37;100313.84;5011252;28;20716;-64
2021/12/07 11:13:35;;;;;;;1.00;0.90;;;8.30;99.90;;;8.31;62.21;100319.25;5011971;28;20669;-64
2021/12/07 11:16:10;;;;;;;2.73;1.03;;;8.20;99.90;;;8.18;61.15;100315.75;5012817;28;20617;-64
2021/12/07 11:18:59;;;;;;;2.30;0.60;;;8.20;99.90;;;8.12;62.09;100313.56;5011860;28;20636;-64
2021/12/07 11:21:32;;;;;;;0.70;0.70;;;8.00;99.90;;;8.09;61.96;100327.59;5012900;28;20640;-64
2021/12/07 11:23:59;;;;;;;2.50;1.00;;;8.00;99.90;;;8.03;62.08;100319.41;5011857;28;20728;-64
2021/12/07 11:31:49;;;;;;;1.87;0.80;;;7.90;99.90;;;7.99;61.79;100308.38;5012430;28;20646;-64
2021/12/07 11:34:40;;;;;;;5.13;0.87;;;7.80;99.90;;;8.01;61.55;100298.72;5008141;28;20625;-62
2021/12/07 11:37:14;;;;;;;2.67;0.90;;;7.90;99.90;;;8.12;61.61;100293.63;4989770;28;20646;-61
2021/12/07 11:39:48;;;;;;;4.00;1.00;;;8.10;99.90;;;8.19;61.84;100289.69;4998715;28;20699;-62
2021/12/07 11:42:29;;;;;;;0.60;0.60;;;8.20;99.90;;;8.19;61.17;100284.50;5011091;28;20612;-64
2021/12/07 11:45:15;;;;;;;0.70;0.70;;;8.10;99.90;;;8.15;60.70;100287.41;5012406;28;20619;-62
2021/12/07 11:47:57;;;;;;;1.43;0.70;;;8.10;99.90;;;8.19;60.35;100288.84;5012920;28;20652;-62
2021/12/07 11:50:45;;;;;;;1.87;0.70;;;8.20;99.90;;;8.19;61.01;100279.31;5011588;28;20664;-62
2021/12/07 11:53:21;;;;;;;1.70;1.00;;;8.20;99.90;;;8.14;60.67;100281.38;5011975;28;21300;-62
2021/12/07 11:55:54;;;;;;;1.47;0.97;;;8.10;99.90;;;8.22;61.16;100278.28;5011114;28;20633;-62
2021/12/07 11:58:22;;;;;;;0.63;0.57;;;8.10;99.90;;;8.25;61.21;100268.50;5012063;28;20875;-63
2021/12/07 12:00:53;;;;;;;2.10;0.60;;;8.20;99.90;;;8.30;60.13;100263.00;5012364;28;20700;-62
2021/12/07 12:03:23;;;;;;;1.20;0.90;;;8.30;99.90;;;8.35;60.53;100251.34;5010840;28;20625;-62
2021/12/07 12:05:54;;;;;;;3.87;1.00;;;8.30;99.90;;;8.31;60.05;100255.09;5007785;28;20632;-63
2021/12/07 12:08:21;;;;;;;7.40;1.07;;;8.30;99.90;;;8.34;59.35;100246.25;5011964;28;20951;-63
2021/12/07 12:11:08;;;;;;;1.23;1.07;;;8.30;99.90;;;8.34;60.11;100241.06;5011906;28;20752;-63
2021/12/07 12:14:20;;;;;;;0.60;0.60;;;8.30;99.90;;;8.42;59.42;100239.59;5011325;28;20740;-63
2021/12/07 12:17:05;;;;;;;1.03;0.60;;;8.40;99.90;;;8.52;60.20;100244.97;5011252;28;20625;-63
2021/12/07 12:20:04;;;;;;;0.80;0.80;;;8.50;99.90;;;8.57;60.65;100230.75;5010813;28;21284;-63
2021/12/07 12:22:51;;;;;;;0.53;0.53;;;8.50;99.90;;;8.55;59.43;100218.78;5012346;28;20609;-63